Terminal Aerodrome Forecast
Issued by NWS Pittsburgh, PA

Current Version | Previous Version | Graphics & Text | Print | Product List | Glossary On
Versions: 1 2 3 4 5 6 7 8 9 10 11 12 13 14 15 16 17 18 19 20 21 22 23 24 25 26 27
000
FTUS41 KPBZ 090239 AAA
TAFPIT
TAF AMD
KPIT 090239Z 0903/1006 27012G18KT P6SM -SN OVC035
     FM090900 26012G22KT P6SM OVC025
     FM091900 27012G20KT 6SM -SN OVC025
     FM100000 26012G18KT P6SM OVC015=

USA.gov is the U.S. government's official web portal to all federal, state and local government web resources and services.